createdAt,value
2022-09-26T00:00:31.303Z,8.51
2022-09-26T00:06:33.224Z,8.48
2022-09-26T00:12:35.143Z,8.37
2022-09-26T00:18:37.808Z,8.44
2022-09-26T00:24:39.711Z,8.36
2022-09-26T00:30:42.699Z,8.36
2022-09-26T00:36:44.658Z,8.42
2022-09-26T00:42:46.948Z,8.29
2022-09-26T00:49:13.735Z,8.32
2022-09-26T00:55:21.409Z,8.33
2022-09-26T01:01:23.525Z,8.37
2022-09-26T01:07:28.407Z,8.32
2022-09-26T01:13:34.423Z,8.29
2022-09-26T01:20:21.251Z,8.29
2022-09-26T01:26:55.501Z,8.29
2022-09-26T01:33:34.062Z,8.36
2022-09-26T01:39:49.289Z,8.59
2022-09-26T01:46:00.792Z,8.60
2022-09-26T01:59:36.525Z,8.67
2022-09-26T02:06:09.609Z,8.75
2022-09-26T02:12:39.309Z,8.96
2022-09-26T02:18:51.063Z,8.78
2022-09-26T02:24:53.908Z,8.94
2022-09-26T02:31:01.250Z,8.94
2022-09-26T02:37:05.543Z,9.03
2022-09-26T02:43:39.738Z,9.04
2022-09-26T02:49:59.785Z,9.06
2022-09-26T02:56:39.456Z,9.06
2022-09-26T03:03:20.371Z,9.18
2022-09-26T03:09:24.329Z,9.12
2022-09-26T03:15:27.899Z,9.33
2022-09-26T03:21:32.731Z,9.24
2022-09-26T03:27:47.674Z,9.27
2022-09-26T03:33:49.767Z,9.39
2022-09-26T03:39:51.781Z,9.33
2022-09-26T03:45:58.698Z,9.20
2022-09-26T03:52:00.850Z,9.28
2022-09-26T03:58:03.300Z,9.20
2022-09-26T04:04:05.241Z,9.23
2022-09-26T04:10:08.165Z,9.19
2022-09-26T04:16:11.614Z,9.22
2022-09-26T04:22:13.628Z,9.15
2022-09-26T04:28:15.555Z,9.03
2022-09-26T04:34:17.489Z,9.05
2022-09-26T04:40:19.480Z,9.05
2022-09-26T04:46:29.599Z,9.03
2022-09-26T04:52:32.923Z,9.05
2022-09-26T04:58:35.841Z,9.13
2022-09-26T05:04:37.769Z,9.12
2022-09-26T05:10:40.316Z,9.08
2022-09-26T05:16:42.273Z,9.23
2022-09-26T05:22:44.220Z,9.17
2022-09-26T05:28:55.669Z,9.27
2022-09-26T05:34:57.627Z,9.37
2022-09-26T05:40:59.656Z,9.57
2022-09-26T05:47:01.617Z,9.77
2022-09-26T05:53:04.398Z,10.14
2022-09-26T05:59:06.467Z,10.04
2022-09-26T06:05:09.210Z,9.99
2022-09-26T06:11:17.783Z,10.18
2022-09-26T06:17:20.138Z,10.36
2022-09-26T06:23:22.218Z,10.62
2022-09-26T06:29:24.143Z,10.96
2022-09-26T06:35:26.059Z,10.79
2022-09-26T06:41:28.207Z,11.03
2022-09-26T06:47:30.393Z,11.23
2022-09-26T06:53:34.863Z,11.48
2022-09-26T06:59:36.759Z,12.01
2022-09-26T07:05:39.733Z,11.96
2022-09-26T07:12:09.978Z,12.26
2022-09-26T07:18:06.777Z,12.52
2022-09-26T07:24:46.997Z,12.26
2022-09-26T07:30:49.072Z,12.56
2022-09-26T07:36:52.189Z,12.60
2022-09-26T07:43:20.099Z,12.52
2022-09-26T07:49:47.571Z,12.62
2022-09-26T07:56:10.660Z,12.77
2022-09-26T08:02:32.911Z,13.30
2022-09-26T08:08:36.297Z,14.04
2022-09-26T08:14:41.577Z,14.69
2022-09-26T08:20:46.981Z,15.51
2022-09-26T08:26:48.825Z,15.81
2022-09-26T08:32:59.150Z,15.17
2022-09-26T08:39:01.063Z,16.47
2022-09-26T08:45:47.300Z,15.82
2022-09-26T08:58:29.083Z,15.25
2022-09-26T09:05:06.286Z,16.88
2022-09-26T09:11:38.786Z,21.27
2022-09-26T09:18:53.792Z,23.78
2022-09-26T09:25:04.914Z,23.25
2022-09-26T09:31:13.518Z,20.27
2022-09-26T09:37:34.899Z,20.92
2022-09-26T09:43:51.485Z,20.40
2022-09-26T09:49:54.125Z,21.94
2022-09-26T09:56:39.900Z,23.33
2022-09-26T10:03:05.865Z,23.09
2022-09-26T10:09:40.879Z,21.19
2022-09-26T10:15:56.130Z,22.06
2022-09-26T10:21:59.576Z,21.83
2022-09-26T10:28:02.701Z,20.71
2022-09-26T10:34:30.480Z,19.57
2022-09-26T10:40:47.922Z,18.78
2022-09-26T10:46:53.004Z,18.52
2022-09-26T10:53:03.051Z,19.57
2022-09-26T10:59:09.888Z,18.43
2022-09-26T11:05:34.574Z,18.48
2022-09-26T11:11:40.390Z,17.96
2022-09-26T11:17:48.994Z,17.22
2022-09-26T11:30:48.244Z,16.27
2022-09-26T11:37:13.670Z,15.38
2022-09-26T11:43:45.067Z,15.33
2022-09-26T11:50:01.183Z,15.73
2022-09-26T11:57:08.615Z,16.14
2022-09-26T12:03:47.011Z,17.17
2022-09-26T12:09:49.151Z,16.32
2022-09-26T12:16:08.485Z,15.82
2022-09-26T12:22:46.753Z,15.72
2022-09-26T12:29:37.217Z,15.71
2022-09-26T12:36:06.169Z,15.91
2022-09-26T12:42:25.330Z,15.96
2022-09-26T12:48:42.331Z,15.95
2022-09-26T12:55:00.266Z,15.68
2022-09-26T13:01:44.387Z,15.72
2022-09-26T13:08:31.301Z,15.44
2022-09-26T13:15:12.850Z,15.38
2022-09-26T13:21:21.553Z,15.36
2022-09-26T13:27:36.129Z,15.49
2022-09-26T13:34:04.140Z,15.26
2022-09-26T13:40:45.670Z,15.34
2022-09-26T13:47:45.044Z,15.38
2022-09-26T13:54:22.701Z,15.54
2022-09-26T14:00:30.325Z,15.38
2022-09-26T14:06:36.929Z,15.34
2022-09-26T14:13:21.496Z,15.05
2022-09-26T14:19:46.823Z,15.01
2022-09-26T14:25:55.635Z,15.00
2022-09-26T14:32:05.319Z,14.69
2022-09-26T14:38:20.815Z,14.39
2022-09-26T14:44:23.362Z,14.67
2022-09-26T14:50:34.330Z,14.56
2022-09-26T14:56:44.915Z,14.54
2022-09-26T15:02:50.277Z,14.64
2022-09-26T15:08:54.486Z,14.65
2022-09-26T15:15:27.259Z,14.38
2022-09-26T15:21:43.125Z,14.38
2022-09-26T15:27:49.582Z,14.49
2022-09-26T15:34:13.378Z,14.35
2022-09-26T15:40:26.582Z,14.24
2022-09-26T15:46:29.274Z,14.49
2022-09-26T15:52:35.436Z,14.50
2022-09-26T15:58:40.178Z,14.23
2022-09-26T16:04:42.577Z,14.44
2022-09-26T16:10:57.969Z,14.19
2022-09-26T16:17:25.161Z,14.10
2022-09-26T16:23:27.548Z,13.94
2022-09-26T16:29:35.858Z,13.90
2022-09-26T16:35:46.541Z,13.81
2022-09-26T16:42:02.683Z,13.65
2022-09-26T16:48:05.475Z,13.51
2022-09-26T16:54:21.818Z,13.27
2022-09-26T17:00:49.970Z,13.37
2022-09-26T17:06:54.761Z,13.23
2022-09-26T17:13:02.496Z,13.37
2022-09-26T17:19:04.933Z,13.24
2022-09-26T17:25:12.430Z,13.26
2022-09-26T17:31:21.239Z,13.32
2022-09-26T17:37:23.535Z,13.31
2022-09-26T17:43:26.755Z,13.29
2022-09-26T17:49:33.863Z,13.29
2022-09-26T17:55:36.430Z,13.32
2022-09-26T18:01:42.589Z,13.37
2022-09-26T18:07:45.782Z,13.23
2022-09-26T18:14:19.901Z,13.14
2022-09-26T18:20:33.533Z,13.31
2022-09-26T18:26:47.177Z,13.23
2022-09-26T18:32:53.977Z,13.10
2022-09-26T18:38:59.220Z,13.12
2022-09-26T18:45:38.239Z,13.37
2022-09-26T18:51:41.217Z,13.23
2022-09-26T18:58:02.078Z,13.40
2022-09-26T19:04:34.312Z,13.03
2022-09-26T19:10:36.291Z,13.06
2022-09-26T19:16:45.601Z,13.04
2022-09-26T19:23:12.568Z,12.96
2022-09-26T19:35:39.876Z,12.94
2022-09-26T19:41:42.265Z,12.98
2022-09-26T19:47:48.126Z,12.86
2022-09-26T19:53:50.379Z,13.14
2022-09-26T19:59:52.321Z,12.78
2022-09-26T20:05:54.275Z,12.37
2022-09-26T20:11:56.223Z,12.40
2022-09-26T20:18:00.180Z,12.57
2022-09-26T20:24:02.440Z,12.26
2022-09-26T20:30:48.992Z,12.32
2022-09-26T20:36:51.732Z,12.23
2022-09-26T20:43:03.931Z,12.16
2022-09-26T20:49:14.919Z,12.06
2022-09-26T20:55:19.246Z,12.19
2022-09-26T21:01:22.605Z,12.31
2022-09-26T21:07:25.072Z,12.29
2022-09-26T21:13:27.005Z,12.01
2022-09-26T21:19:30.590Z,11.92
2022-09-26T21:25:32.740Z,12.04
2022-09-26T21:31:36.105Z,11.65
2022-09-26T21:44:25.406Z,11.99
2022-09-26T21:50:28.734Z,11.88
2022-09-26T21:56:37.550Z,11.89
2022-09-26T22:02:41.470Z,11.73
2022-09-26T22:08:43.458Z,11.63
2022-09-26T22:14:45.547Z,11.59
2022-09-26T22:20:54.627Z,11.59
2022-09-26T22:26:56.580Z,11.71
2022-09-26T22:32:58.491Z,11.40
2022-09-26T22:39:00.693Z,11.43
2022-09-26T22:45:02.768Z,11.34
2022-09-26T22:58:12.608Z,11.65
2022-09-26T23:04:14.656Z,11.44
2022-09-26T23:10:17.891Z,11.46
2022-09-26T23:16:23.546Z,11.29
2022-09-26T23:22:25.590Z,11.27
2022-09-26T23:28:28.161Z,11.49
2022-09-26T23:34:30.072Z,11.25
2022-09-26T23:40:32.417Z,11.25
2022-09-26T23:46:34.537Z,11.32
2022-09-26T23:52:36.520Z,11.61
2022-09-26T23:58:38.776Z,11.51
